Time;durP1;ratioP1;P1;durP2;ratioP2;P2;SDS_P1;SDS_P2;PMS_P1;PMS_P2;Temp;Humidity;BMP_temperature;BMP_pressure;BME280_temperature;BME280_humidity;BME280_pressure;Samples;Min_cycle;Max_cycle;Signal;HPM_P1;HPM_P2
2022/05/06 00:02:04;;;;;;;6.30;2.40;;;;;;;12.86;55.43;100819.75;5091898;28;20028;-31
2022/05/06 00:04:29;;;;;;;5.50;2.65;;;;;;;12.64;56.82;100826.47;5108900;28;20131;-30
2022/05/06 00:06:55;;;;;;;4.97;2.40;;;;;;;12.49;58.08;100831.31;5109736;28;20027;-29
2022/05/06 00:09:21;;;;;;;6.28;2.47;;;;;;;12.39;57.47;100816.50;5110604;28;20039;-30
2022/05/06 00:11:47;;;;;;;5.05;2.70;;;;;;;11.92;58.87;100802.47;5108586;28;20039;-28
2022/05/06 00:14:12;;;;;;;6.20;2.53;;;;;;;11.97;57.52;100817.88;5091772;28;20486;-27
2022/05/06 00:16:38;;;;;;;5.55;2.60;;;;;;;12.04;59.05;100811.50;5107176;28;20031;-29
2022/05/06 00:19:03;;;;;;;5.78;2.60;;;;;;;12.10;58.19;100791.13;5109864;28;20089;-32
2022/05/06 00:21:29;;;;;;;5.75;2.58;;;;;;;12.01;58.48;100798.56;5091748;28;20092;-29
2022/05/06 00:23:54;;;;;;;5.60;2.28;;;;;;;11.85;58.45;100793.66;5109890;28;20019;-30
2022/05/06 00:26:19;;;;;;;5.22;2.35;;;;;;;11.93;58.05;100814.00;5109951;28;20035;-29
2022/05/06 00:28:45;;;;;;;4.85;2.65;;;;;;;11.93;58.40;100817.50;5108025;28;20040;-32
2022/05/06 00:31:12;;;;;;;6.15;2.78;;;;;;;11.95;57.65;100823.47;5109314;28;20495;-29
2022/05/06 00:33:37;;;;;;;4.07;2.20;;;;;;;11.90;58.05;100804.53;5109902;28;20103;-28
2022/05/06 00:36:04;;;;;;;4.80;2.53;;;;;;;11.84;58.27;100802.69;5109627;28;20042;-28
2022/05/06 00:38:30;;;;;;;5.53;2.45;;;;;;;11.88;58.33;100808.44;5090804;28;20056;-29
2022/05/06 00:40:56;;;;;;;9.48;2.70;;;;;;;11.76;59.43;100827.75;5109814;28;20059;-29
2022/05/06 00:43:25;;;;;;;5.53;2.60;;;;;;;11.54;59.92;100839.69;5091515;28;20129;-28
2022/05/06 00:45:55;;;;;;;6.07;2.95;;;;;;;11.57;60.00;100834.78;5091114;28;20092;-28
2022/05/06 00:48:25;;;;;;;4.88;2.65;;;;;;;11.34;61.65;100834.34;5109956;28;20035;-34
2022/05/06 00:50:51;;;;;;;7.03;2.90;;;;;;;11.20;62.94;100837.03;5109523;28;20042;-31
2022/05/06 00:53:17;;;;;;;4.82;2.78;;;;;;;10.95;62.93;100817.28;5109238;28;20038;-27
2022/05/06 00:55:43;;;;;;;10.18;3.03;;;;;;;10.84;63.85;100802.69;5109660;28;20024;-28
2022/05/06 00:58:09;;;;;;;4.85;2.88;;;;;;;10.73;65.27;100827.31;5109559;28;20820;-29
2022/05/06 01:00:35;;;;;;;6.03;2.83;;;;;;;10.64;65.02;100791.97;5090731;28;20114;-29
2022/05/06 01:03:00;;;;;;;4.90;2.78;;;;;;;10.57;65.27;100809.81;5109441;28;20031;-30
2022/05/06 01:05:26;;;;;;;7.50;3.22;;;;;;;10.82;64.88;100829.56;5109406;28;20027;-31
2022/05/06 01:07:53;;;;;;;5.90;3.17;;;;;;;10.93;64.60;100816.66;5107768;28;20020;-28
2022/05/06 01:10:20;;;;;;;4.78;2.78;;;;;;;10.57;65.00;100804.47;5109244;28;20698;-29
2022/05/06 01:12:46;;;;;;;5.78;2.65;;;;;;;10.73;65.20;100809.44;5108823;28;20051;-29
2022/05/06 01:15:22;;;;;;;5.80;3.20;;;;;;;10.79;64.33;100811.31;5109233;28;20067;-33
2022/05/06 01:17:49;;;;;;;6.60;3.35;;;;;;;11.03;63.89;100795.72;5107752;28;20065;-29
2022/05/06 01:20:16;;;;;;;9.55;3.85;;;;;;;11.33;62.93;100800.69;5109098;28;20028;-28
2022/05/06 01:22:47;;;;;;;7.22;3.30;;;;;;;11.36;62.46;100793.09;5109106;28;20138;-28
2022/05/06 01:25:13;;;;;;;7.32;3.08;;;;;;;11.17;62.58;100792.03;5090407;28;20031;-28
2022/05/06 01:27:45;;;;;;;9.02;3.22;;;;;;;11.24;63.26;100819.56;5089891;28;20267;-29
2022/05/06 01:30:20;;;;;;;7.53;3.10;;;;;;;10.72;64.53;100805.13;5108934;28;20077;-30
2022/05/06 01:32:45;;;;;;;4.97;2.95;;;;;;;10.73;65.44;100812.13;5090176;28;20035;-29
2022/05/06 01:35:12;;;;;;;8.10;2.97;;;;;;;10.91;64.87;100813.38;5108432;28;20034;-28
2022/05/06 01:37:42;;;;;;;5.47;3.30;;;;;;;10.95;63.94;100819.94;5089934;28;20035;-33
2022/05/06 01:40:09;;;;;;;5.82;3.10;;;;;;;10.95;64.20;100818.13;5108582;28;20051;-28
2022/05/06 01:42:36;;;;;;;8.48;4.00;;;;;;;10.95;63.73;100814.59;5090296;28;20023;-28
2022/05/06 01:45:03;;;;;;;7.13;3.20;;;;;;;10.95;63.82;100815.44;5090175;28;20032;-29
2022/05/06 01:47:30;;;;;;;7.63;3.40;;;;;;;10.97;64.03;100812.56;5108516;28;20694;-28
2022/05/06 01:49:58;;;;;;;9.18;3.55;;;;;;;10.81;64.32;100798.59;5107136;28;20031;-31
2022/05/06 01:52:24;;;;;;;7.38;3.67;;;;;;;10.90;64.66;100814.41;5090176;28;20024;-29
2022/05/06 01:54:50;;;;;;;5.75;3.63;;;;;;;10.76;65.18;100819.69;5108259;28;20031;-30
2022/05/06 01:57:16;;;;;;;6.65;3.28;;;;;;;10.44;67.17;100815.91;5108204;28;20035;-32
2022/05/06 01:59:41;;;;;;;6.18;3.20;;;;;;;10.21;68.30;100810.84;5108198;28;20070;-29
2022/05/06 02:02:07;;;;;;;6.95;2.97;;;;;;;10.40;67.41;100823.50;5108238;28;20046;-29
2022/05/06 02:07:16;;;;;;;9.63;4.53;;;;;;;10.09;68.27;100833.75;5107882;28;20673;-30
2022/05/06 02:09:42;;;;;;;7.07;4.00;;;;;;;9.93;68.27;100801.09;5108014;28;20035;-30
2022/05/06 02:12:08;;;;;;;9.57;3.80;;;;;;;10.12;67.66;100807.53;5106842;28;20387;-30
2022/05/06 02:14:33;;;;;;;13.75;4.10;;;;;;;9.81;69.10;100829.31;5106631;28;20516;-28
2022/05/06 02:16:59;;;;;;;8.73;4.30;;;;;;;10.04;68.59;100824.50;5089505;28;20027;-28
2022/05/06 02:19:25;;;;;;;9.20;4.90;;;;;;;9.97;68.04;100809.50;5089726;28;20431;-28
2022/05/06 02:21:50;;;;;;;8.68;4.30;;;;;;;9.79;70.10;100828.69;5107909;28;20464;-28
2022/05/06 02:24:16;;;;;;;9.95;4.43;;;;;;;10.21;69.24;100829.50;5108044;28;20057;-29
2022/05/06 02:26:42;;;;;;;6.05;3.67;;;;;;;9.62;71.12;100831.63;5108126;28;20028;-28
2022/05/06 02:29:07;;;;;;;6.82;3.92;;;;;;;10.24;68.90;100834.47;5089284;28;20057;-28
2022/05/06 02:34:18;;;;;;;8.63;4.18;;;;;;;10.44;66.74;100827.41;5107968;28;20030;-31
2022/05/06 02:36:47;;;;;;;6.32;3.65;;;;;;;10.52;67.56;100830.91;5107320;28;20490;-36
2022/05/06 02:39:12;;;;;;;6.82;3.83;;;;;;;10.31;66.99;100814.00;5088691;28;20055;-28
2022/05/06 02:41:38;;;;;;;8.52;3.78;;;;;;;10.21;67.85;100824.19;5107329;28;20030;-29
2022/05/06 02:44:04;;;;;;;7.13;3.88;;;;;;;10.42;67.39;100841.94;5089497;28;20035;-28
2022/05/06 02:46:31;;;;;;;9.27;4.13;;;;;;;10.49;66.52;100832.13;5089220;28;20045;-28
2022/05/06 02:48:56;;;;;;;8.10;3.72;;;;;;;10.31;67.71;100840.66;5107466;28;20028;-30
2022/05/06 02:51:22;;;;;;;6.50;3.97;;;;;;;10.25;68.04;100836.09;5107735;28;20024;-31
2022/05/06 02:53:47;;;;;;;7.88;3.97;;;;;;;10.03;68.47;100830.03;5107373;28;20024;-29
2022/05/06 02:56:13;;;;;;;8.35;4.18;;;;;;;10.12;68.92;100838.72;5107275;28;20913;-29
2022/05/06 02:58:38;;;;;;;10.32;4.20;;;;;;;10.05;68.80;100847.50;5107270;28;20036;-28
2022/05/06 03:01:04;;;;;;;7.85;4.22;;;;;;;10.02;68.81;100850.53;5088687;28;20038;-33
2022/05/06 03:03:33;;;;;;;9.98;5.05;;;;;;;9.90;69.72;100844.09;5105566;28;20031;-29
2022/05/06 03:06:00;;;;;;;9.20;3.78;;;;;;;9.99;69.44;100864.25;5107253;28;20192;-30
2022/05/06 03:08:25;;;;;;;8.52;4.50;;;;;;;10.10;69.10;100870.06;5106906;28;20036;-28
2022/05/06 03:10:51;;;;;;;10.77;4.95;;;;;;;10.26;67.86;100857.22;5088989;28;20031;-30
2022/05/06 03:13:16;;;;;;;7.40;3.75;;;;;;;10.12;68.45;100846.72;5107243;28;20479;-28
2022/05/06 03:15:43;;;;;;;6.10;3.92;;;;;;;10.08;69.52;100869.44;5107089;28;20921;-30
2022/05/06 03:18:09;;;;;;;6.70;4.07;;;;;;;10.13;68.90;100867.81;5088912;28;20028;-31
2022/05/06 03:20:34;;;;;;;7.70;3.95;;;;;;;10.12;68.34;100860.03;5107126;28;20024;-31
2022/05/06 03:23:00;;;;;;;8.55;3.85;;;;;;;10.31;69.06;100848.66;5071977;28;20590;-29
2022/05/06 03:25:25;;;;;;;10.50;4.32;;;;;;;10.58;67.97;100870.13;5106860;28;20035;-28
2022/05/06 03:28:02;;;;;;;8.68;4.72;;;;;;;10.57;68.17;100849.81;5107005;28;20031;-28
2022/05/06 03:30:30;;;;;;;7.53;4.50;;;;;;;10.58;68.28;100856.78;5106933;28;20107;-28
2022/05/06 03:32:58;;;;;;;7.60;4.03;;;;;;;10.71;67.46;100864.84;5088462;28;20489;-30
2022/05/06 03:35:26;;;;;;;7.53;4.40;;;;;;;10.72;68.16;100874.47;5088552;28;20469;-28
2022/05/06 03:37:52;;;;;;;7.00;4.30;;;;;;;10.74;66.72;100859.09;5088162;28;20062;-29
2022/05/06 03:40:18;;;;;;;9.50;4.00;;;;;;;10.86;67.27;100875.34;5106858;28;20027;-28
2022/05/06 03:42:44;;;;;;;8.02;5.00;;;;;;;10.80;67.14;100884.16;5107005;28;20023;-31
2022/05/06 03:45:10;;;;;;;10.65;4.75;;;;;;;10.96;66.55;100856.28;5107066;28;20032;-29
2022/05/06 03:47:35;;;;;;;10.95;5.55;;;;;;;10.84;68.78;100880.88;5088369;28;20058;-31
2022/05/06 03:52:50;;;;;;;10.35;4.40;;;;;;;10.72;70.08;100871.81;5110776;28;20566;-32
2022/05/06 03:55:17;;;;;;;16.42;4.78;;;;;;;10.81;70.40;100889.31;5110270;28;20107;-28
2022/05/06 03:57:42;;;;;;;11.32;4.90;;;;;;;10.94;69.53;100898.38;5110319;28;20449;-28
2022/05/06 04:00:12;;;;;;;7.80;4.45;;;;;;;11.10;68.50;100908.69;5110793;28;20016;-29
2022/05/06 04:02:38;;;;;;;8.75;4.53;;;;;;;11.43;67.09;100889.22;5091876;28;20564;-28
2022/05/06 04:05:04;;;;;;;7.25;3.80;;;;;;;11.44;66.96;100893.53;5091703;28;20027;-29
2022/05/06 04:07:30;;;;;;;8.32;4.60;;;;;;;11.76;66.10;100907.13;5091734;28;20038;-28
2022/05/06 04:09:55;;;;;;;16.73;5.05;;;;;;;11.61;66.85;100910.81;5110063;28;20023;-30
2022/05/06 04:12:21;;;;;;;8.07;4.40;;;;;;;11.88;66.05;100915.34;5092045;28;20032;-31
2022/05/06 04:14:47;;;;;;;7.90;5.40;;;;;;;11.83;65.84;100907.94;5092064;28;20027;-33
2022/05/06 04:17:13;;;;;;;8.02;4.53;;;;;;;11.87;65.79;100887.81;5110131;28;20106;-29
2022/05/06 04:23:29;;;;;;;7.47;4.80;;;;;;;12.10;64.24;100890.06;5110091;28;20165;-29
2022/05/06 04:25:15;;;;;;;8.38;4.80;;;;;;;12.28;62.77;100902.78;5109771;28;20140;-29
2022/05/06 04:27:44;;;;;;;8.88;4.30;;;;;;;12.51;62.18;100912.19;5109804;28;20456;-32
2022/05/06 04:30:11;;;;;;;7.35;4.10;;;;;;;12.53;62.39;100918.13;5108608;28;20126;-28
2022/05/06 04:32:37;;;;;;;7.43;4.40;;;;;;;12.85;60.03;100910.97;5110215;28;20052;-29
2022/05/06 04:35:05;;;;;;;9.10;4.45;;;;;;;12.93;60.34;100921.44;5090882;28;20036;-28
2022/05/06 04:37:31;;;;;;;7.57;4.80;;;;;;;13.13;61.12;100924.03;5109501;28;20032;-30
2022/05/06 04:39:57;;;;;;;8.13;4.93;;;;;;;13.07;60.70;100890.06;5109797;28;20081;-32
2022/05/06 04:42:23;;;;;;;8.18;5.07;;;;;;;13.27;61.39;100914.88;5091294;28;20023;-28
2022/05/06 04:44:48;;;;;;;9.18;4.68;;;;;;;13.33;62.02;100917.78;5109478;28;20107;-32
2022/05/06 04:47:14;;;;;;;10.00;5.10;;;;;;;13.30;63.68;100915.50;5090887;28;20032;-29
2022/05/06 04:49:39;;;;;;;8.00;4.68;;;;;;;13.73;61.61;100923.69;5109355;28;20027;-29
2022/05/06 04:52:05;;;;;;;9.13;5.25;;;;;;;13.39;62.28;100890.13;5109966;28;20034;-29
2022/05/06 04:54:30;;;;;;;12.73;6.53;;;;;;;13.70;61.29;100901.84;5108381;28;20020;-30
2022/05/06 04:56:56;;;;;;;9.23;4.72;;;;;;;13.66;61.09;100891.53;5109499;28;20027;-31
2022/05/06 04:59:22;;;;;;;8.35;4.93;;;;;;;13.86;60.39;100910.16;5109597;28;20028;-32
2022/05/06 05:01:50;;;;;;;9.00;4.78;;;;;;;13.96;61.36;100915.00;5109153;28;20034;-29
2022/05/06 05:04:16;;;;;;;7.90;4.85;;;;;;;13.93;59.95;100904.72;5108640;28;20023;-34
2022/05/06 05:06:42;;;;;;;9.05;5.03;;;;;;;13.82;62.06;100921.53;5109333;28;20039;-30
2022/05/06 05:09:08;;;;;;;9.80;4.75;;;;;;;13.61;60.97;100894.06;5107626;28;20392;-30
2022/05/06 05:11:34;;;;;;;14.18;5.20;;;;;;;14.19;60.40;100922.41;5107814;28;20031;-28
2022/05/06 05:14:02;;;;;;;7.80;4.72;;;;;;;14.42;58.68;100920.94;5109476;28;20031;-29
2022/05/06 05:16:31;;;;;;;10.13;4.68;;;;;;;14.34;59.45;100930.09;5109152;28;20028;-32
2022/05/06 05:18:56;;;;;;;12.05;4.35;;;;;;;14.28;58.15;100931.00;5107590;28;20042;-30
2022/05/06 05:21:22;;;;;;;6.57;4.05;;;;;;;14.06;57.53;100912.66;5109022;28;20028;-29
2022/05/06 05:23:48;;;;;;;6.10;3.95;;;;;;;14.40;55.78;100918.47;5109105;28;20028;-30
2022/05/06 05:26:13;;;;;;;9.10;4.30;;;;;;;14.49;56.14;100918.22;5090677;28;20054;-28
2022/05/06 05:28:38;;;;;;;9.55;4.07;;;;;;;14.40;56.85;100929.22;5108489;28;20020;-30
2022/05/06 05:31:04;;;;;;;8.35;4.65;;;;;;;14.74;53.51;100940.44;5108635;28;20039;-28
2022/05/06 05:33:30;;;;;;;7.07;3.47;;;;;;;14.92;53.82;100931.53;5108583;28;20478;-28
2022/05/06 05:35:56;;;;;;;8.50;3.72;;;;;;;14.79;53.07;100940.59;5090281;28;20043;-31
2022/05/06 05:38:21;;;;;;;8.25;4.47;;;;;;;14.70;54.28;100936.56;5108645;28;20062;-28
2022/05/06 05:40:47;;;;;;;8.95;4.55;;;;;;;14.75;55.00;100946.63;5108442;28;20016;-30
2022/05/06 05:48:40;;;;;;;7.85;4.53;;;;;;;15.01;55.80;100919.44;5108525;28;20430;-28
2022/05/06 05:51:05;;;;;;;6.13;4.30;;;;;;;14.88;55.47;100921.50;5089871;28;20767;-33
2022/05/06 05:53:32;;;;;;;7.65;4.07;;;;;;;15.04;54.24;100934.28;5108317;28;20024;-29
2022/05/06 05:55:58;;;;;;;6.90;3.75;;;;;;;14.83;53.50;100933.72;5108503;28;20027;-28
2022/05/06 05:58:23;;;;;;;7.68;3.55;;;;;;;14.95;56.25;100936.44;5108507;28;20043;-28
2022/05/06 06:00:49;;;;;;;9.60;5.35;;;;;;;15.14;54.35;100921.13;5108424;28;20062;-29
2022/05/06 06:03:15;;;;;;;9.27;4.28;;;;;;;15.19;54.93;100918.56;5108365;28;20027;-32
2022/05/06 06:05:40;;;;;;;6.47;3.42;;;;;;;14.38;55.97;100933.16;5108356;28;20398;-29
2022/05/06 06:08:06;;;;;;;6.05;3.30;;;;;;;14.75;56.37;100949.31;5108007;28;20032;-28
2022/05/06 06:10:33;;;;;;;5.30;2.88;;;;;;;14.92;54.67;100941.47;5108050;28;20050;-30
2022/05/06 06:13:00;;;;;;;7.70;3.20;;;;;;;14.86;54.03;100937.81;5107822;28;20028;-31
2022/05/06 06:15:26;;;;;;;5.78;2.75;;;;;;;14.78;53.98;100922.84;5107518;28;20024;-30
2022/05/06 06:17:52;;;;;;;6.70;3.22;;;;;;;14.82;54.43;100937.44;5108317;28;20042;-33
2022/05/06 06:20:18;;;;;;;5.35;3.40;;;;;;;14.84;54.70;100919.25;5108358;28;20019;-29
2022/05/06 06:22:43;;;;;;;6.95;3.65;;;;;;;15.27;53.88;100939.75;5107978;28;20038;-28
2022/05/06 06:25:09;;;;;;;5.40;3.30;;;;;;;14.95;55.43;100911.47;5107682;28;20027;-32
2022/05/06 06:27:34;;;;;;;6.38;3.95;;;;;;;15.35;56.36;100937.78;5107420;28;20053;-29
2022/05/06 06:30:01;;;;;;;8.90;3.90;;;;;;;15.54;55.41;100933.97;5107870;28;20118;-28
2022/05/06 06:32:26;;;;;;;10.00;3.92;;;;;;;15.55;56.20;100941.00;5107563;28;20126;-31
2022/05/06 06:34:54;;;;;;;7.85;3.83;;;;;;;15.55;55.64;100926.72;5107941;28;20478;-29
2022/05/06 06:37:20;;;;;;;9.30;4.50;;;;;;;15.67;54.59;100951.75;5107338;28;20043;-29
2022/05/06 06:39:45;;;;;;;9.27;3.67;;;;;;;15.53;53.38;100932.34;5107298;28;20537;-31
2022/05/06 06:42:11;;;;;;;9.02;4.38;;;;;;;15.72;52.77;100930.41;5107141;28;20536;-32
2022/05/06 06:44:36;;;;;;;7.75;3.92;;;;;;;15.75;52.37;100934.50;5107788;28;20023;-30
2022/05/06 06:47:08;;;;;;;6.32;3.78;;;;;;;15.82;51.56;100932.53;5107425;28;20020;-29
2022/05/06 06:49:33;;;;;;;6.93;3.67;;;;;;;15.60;51.34;100933.03;5107740;28;20114;-30
2022/05/06 06:51:59;;;;;;;7.20;4.35;;;;;;;16.15;52.63;100944.59;5107512;28;20091;-32
2022/05/06 06:54:24;;;;;;;10.68;4.60;;;;;;;16.46;51.09;100940.72;5107255;28;20413;-30
2022/05/06 06:56:49;;;;;;;7.28;2.92;;;;;;;16.36;48.39;100922.44;5107537;28;20051;-33
2022/05/06 06:59:15;;;;;;;5.40;2.80;;;;;;;16.84;47.82;100934.81;5107022;28;20096;-29
2022/05/06 07:01:40;;;;;;;7.43;3.40;;;;;;;16.56;48.54;100921.25;5107483;28;20068;-32
2022/05/06 07:04:06;;;;;;;6.93;3.15;;;;;;;16.52;48.14;100934.38;5107533;28;20035;-29
2022/05/06 07:11:59;;;;;;;6.50;3.42;;;;;;;16.57;51.40;100920.19;5107297;28;20092;-29
2022/05/06 07:14:25;;;;;;;17.55;9.27;;;;;;;17.12;49.95;100927.78;5107282;28;20031;-30
2022/05/06 07:16:53;;;;;;;14.48;6.57;;;;;;;17.35;49.66;100926.03;5107830;28;20038;-29
2022/05/06 07:19:20;;;;;;;7.73;3.63;;;;;;;17.16;47.75;100928.94;5088352;28;20069;-30
2022/05/06 07:21:45;;;;;;;6.38;3.22;;;;;;;17.07;46.82;100914.22;5106730;28;20671;-31
2022/05/06 07:24:11;;;;;;;9.77;4.47;;;;;;;17.21;48.69;100914.75;5088678;28;20028;-31
2022/05/06 07:26:36;;;;;;;7.50;4.13;;;;;;;17.33;48.52;100912.81;5108984;28;20028;-30
2022/05/06 07:29:02;;;;;;;5.70;3.60;;;;;;;17.15;48.41;100915.72;5109604;28;20020;-29
2022/05/06 07:31:28;;;;;;;6.25;3.47;;;;;;;17.55;47.19;100921.00;5092644;28;20034;-29
2022/05/06 07:33:54;;;;;;;7.18;3.42;;;;;;;17.54;46.83;100922.03;5111108;28;20027;-30
2022/05/06 07:36:19;;;;;;;7.28;3.78;;;;;;;17.52;46.91;100916.06;5111175;28;20360;-28
2022/05/06 07:38:45;;;;;;;8.98;3.83;;;;;;;17.23;47.40;100913.44;5110997;28;20059;-29
2022/05/06 07:41:10;;;;;;;7.10;4.28;;;;;;;17.60;47.19;100920.25;5110797;28;20050;-33
2022/05/06 07:43:36;;;;;;;6.72;4.18;;;;;;;17.62;47.92;100921.63;5110832;28;20043;-32
2022/05/06 07:46:02;;;;;;;8.43;3.70;;;;;;;17.58;48.56;100917.81;5092471;28;20479;-31
2022/05/06 07:48:27;;;;;;;8.52;4.97;;;;;;;17.84;48.09;100918.25;5110823;28;20035;-28
2022/05/06 07:50:53;;;;;;;8.30;4.35;;;;;;;17.56;48.29;100901.03;5110434;28;20069;-29
2022/05/06 07:53:19;;;;;;;8.75;4.13;;;;;;;17.58;49.15;100915.09;5110472;28;20118;-30
2022/05/06 07:55:45;;;;;;;12.98;6.72;;;;;;;17.98;50.96;100902.50;5110660;28;20031;-31
2022/05/06 07:58:12;;;;;;;8.98;3.88;;;;;;;18.36;46.69;100925.19;5110850;28;20042;-32
2022/05/06 08:00:37;;;;;;;7.65;4.20;;;;;;;18.18;48.52;100919.00;5110451;28;20031;-29
2022/05/06 08:05:49;;;;;;;8.13;3.95;;;;;;;18.53;47.32;100928.69;5110589;28;20043;-29
2022/05/06 08:08:14;;;;;;;9.25;5.63;;;;;;;18.71;48.06;100935.63;5110449;28;20047;-31
2022/05/06 08:10:40;;;;;;;9.93;5.15;;;;;;;19.00;48.85;100919.22;5110321;28;20120;-30
2022/05/06 08:13:06;;;;;;;6.90;4.45;;;;;;;19.12;46.87;100938.00;5108676;28;20708;-30
2022/05/06 08:15:32;;;;;;;10.20;5.70;;;;;;;19.34;46.80;100914.44;5110305;28;20102;-31
2022/05/06 08:17:57;;;;;;;12.90;6.10;;;;;;;19.25;46.69;100937.63;5108635;28;20059;-30
2022/05/06 08:20:23;;;;;;;8.07;4.60;;;;;;;19.42;46.89;100905.03;5110045;28;20024;-32
2022/05/06 08:22:48;;;;;;;7.38;4.28;;;;;;;19.62;45.33;100915.22;5110204;28;20046;-29
2022/05/06 08:25:14;;;;;;;8.27;4.55;;;;;;;19.82;45.49;100925.44;5109935;28;20042;-31
2022/05/06 08:27:41;;;;;;;8.13;4.80;;;;;;;20.25;44.99;100910.00;5108669;28;20072;-30
2022/05/06 08:30:08;;;;;;;6.85;4.78;;;;;;;20.08;46.79;100904.72;5108568;28;20023;-29
2022/05/06 08:32:34;;;;;;;8.52;4.10;;;;;;;20.21;46.70;100919.72;5108255;28;20024;-29
2022/05/06 08:35:00;;;;;;;8.43;5.07;;;;;;;20.60;47.66;100913.97;5109803;28;20080;-31
2022/05/06 08:37:25;;;;;;;8.60;4.55;;;;;;;20.66;46.98;100896.66;5109000;28;20081;-29
2022/05/06 08:39:52;;;;;;;8.13;5.00;;;;;;;20.96;45.21;100906.75;5091064;28;20154;-29
2022/05/06 08:42:22;;;;;;;8.52;4.82;;;;;;;21.23;44.95;100901.13;5109791;28;20052;-31
2022/05/06 08:53:03;;;;;;;8.32;5.78;;;;;;;21.60;44.99;100913.66;5109521;28;20035;-29
2022/05/06 08:55:28;;;;;;;9.23;5.30;;;;;;;21.77;45.77;100910.63;5090984;28;20054;-32
2022/05/06 08:57:55;;;;;;;8.02;5.53;;;;;;;21.87;44.62;100898.97;5109772;28;20059;-31
2022/05/06 09:00:28;;;;;;;8.90;6.15;;;;;;;22.02;43.83;100917.91;5109162;28;20035;-32
2022/05/06 09:02:54;;;;;;;8.45;6.03;;;;;;;21.61;46.92;100900.88;5089802;28;20041;-33
2022/05/06 09:05:21;;;;;;;9.38;6.00;;;;;;;22.04;45.99;100910.31;5112058;27;20115;-32
2022/05/06 09:07:57;;;;;;;7.53;5.97;;;;;;;21.99;44.50;100904.91;5090293;27;20024;-30
2022/05/06 09:10:23;;;;;;;6.72;5.43;;;;;;;21.91;44.80;100899.22;5090261;27;20039;-34
2022/05/06 09:12:55;;;;;;;10.20;5.82;;;;;;;21.93;45.64;100889.72;5108541;28;20020;-29
2022/05/06 09:18:07;;;;;;;9.23;6.72;;;;;;;21.60;45.83;100880.25;5109517;27;20062;-30
2022/05/06 09:20:34;;;;;;;9.88;6.35;;;;;;;21.96;47.97;100907.34;5108224;28;20035;-34
2022/05/06 09:23:19;;;;;;;7.78;5.78;;;;;;;22.39;43.24;100900.50;5103976;27;20034;-31
2022/05/06 09:25:52;;;;;;;10.70;6.63;;;;;;;22.61;44.69;100885.69;5128147;27;20042;-29
2022/05/06 09:28:20;;;;;;;8.40;6.22;;;;;;;22.32;44.75;100894.53;5110486;27;20096;-30
2022/05/06 09:31:08;;;;;;;8.60;6.95;;;;;;;22.21;44.42;100892.88;5128891;27;20027;-29
2022/05/06 09:33:36;;;;;;;9.63;6.57;;;;;;;22.12;45.15;100883.69;5129032;27;20758;-35
2022/05/06 09:36:20;;;;;;;;;;;;;;;22.01;44.99;100878.28;5129482;27;20036;-30
2022/05/06 09:39:07;;;;;;;8.52;5.60;;;;;;;22.77;43.91;100879.09;5128914;27;20461;-29
2022/05/06 09:41:35;;;;;;;7.72;6.05;;;;;;;22.73;42.30;100872.59;5110363;27;20038;-29
2022/05/06 09:44:03;;;;;;;9.55;5.90;;;;;;;22.20;42.21;100858.66;5110581;27;20062;-29
2022/05/06 09:46:28;;;;;;;9.30;7.35;;;;;;;22.74;42.50;100868.78;5128959;27;20376;-29
2022/05/06 09:48:59;;;;;;;9.18;5.70;;;;;;;22.86;39.80;100860.25;5110304;27;20558;-34
2022/05/06 09:51:34;;;;;;;9.70;6.00;;;;;;;22.86;37.81;100855.66;5109973;27;20019;-30
2022/05/06 09:54:02;;;;;;;10.02;5.80;;;;;;;23.31;37.40;100868.41;5110275;27;20098;-29
2022/05/06 09:56:28;;;;;;;9.35;6.68;;;;;;;22.78;39.65;100856.25;5110228;27;20510;-30
2022/05/06 09:58:56;;;;;;;10.40;6.15;;;;;;;23.26;39.90;100861.91;5128551;27;20035;-29
2022/05/06 10:01:22;;;;;;;8.80;6.68;;;;;;;23.05;39.74;100852.31;5109597;27;20041;-29
2022/05/06 10:03:47;;;;;;;8.85;6.25;;;;;;;22.86;39.58;100847.50;5128238;27;20031;-31
2022/05/06 10:06:13;;;;;;;9.10;5.72;;;;;;;23.12;40.71;100851.97;5127951;27;20027;-30
2022/05/06 10:08:47;;;;;;;8.60;5.70;;;;;;;23.08;40.20;100849.00;5128743;27;20031;-29
2022/05/06 10:11:14;;;;;;;6.50;4.32;;;;;;;23.11;38.92;100834.84;5109960;27;20034;-29
2022/05/06 10:13:45;;;;;;;;;;;;;;;22.94;38.04;100839.81;5110162;27;20038;-30
2022/05/06 10:16:11;;;;;;;7.03;4.10;;;;;;;22.72;37.94;100832.91;5128525;27;20507;-31
2022/05/06 10:18:38;;;;;;;10.07;4.63;;;;;;;22.60;36.37;100840.59;5109757;27;20753;-30
2022/05/06 10:21:04;;;;;;;7.43;4.20;;;;;;;22.82;39.76;100824.69;5109607;27;20038;-29
2022/05/06 10:23:53;;;;;;;7.03;4.18;;;;;;;22.76;41.39;100816.81;5126627;27;20783;-31
2022/05/06 10:26:41;;;;;;;8.02;4.18;;;;;;;23.29;36.86;100835.22;5109745;27;20031;-31
2022/05/06 10:35:08;;;;;;;6.57;4.25;;;;;;;23.93;35.78;100817.75;5128156;27;20038;-31
2022/05/06 10:37:42;;;;;;;7.82;4.47;;;;;;;23.90;36.64;100812.06;5125985;27;20047;-30
2022/05/06 10:40:28;;;;;;;6.25;4.05;;;;;;;23.99;35.79;100808.41;5109382;27;20027;-29
2022/05/06 10:42:54;;;;;;;6.45;3.97;;;;;;;23.97;35.78;100810.63;5127902;27;20034;-31
2022/05/06 10:45:27;;;;;;;4.90;3.58;;;;;;;23.86;35.69;100801.75;5109415;27;20024;-31
2022/05/06 10:47:53;;;;;;;5.28;3.40;;;;;;;23.65;34.50;100808.47;5126967;27;20069;-32
2022/05/06 10:50:21;;;;;;;6.28;3.17;;;;;;;23.58;33.25;100806.13;5127656;27;20650;-31
2022/05/06 10:52:48;;;;;;;5.93;2.83;;;;;;;23.20;31.00;100810.53;5127837;27;20563;-32
2022/05/06 10:55:15;;;;;;;5.50;2.78;;;;;;;23.74;33.64;100809.50;5109081;28;20084;-30
2022/05/06 10:57:48;;;;;;;6.22;3.05;;;;;;;23.78;31.62;100809.72;5109116;27;20039;-33
2022/05/06 11:00:14;;;;;;;6.80;3.00;;;;;;;23.72;33.67;100802.69;5108633;27;20031;-32
2022/05/06 11:02:40;;;;;;;5.35;2.85;;;;;;;23.45;31.98;100804.06;5127204;28;20039;-34
2022/05/06 11:05:10;;;;;;;6.20;3.00;;;;;;;23.53;32.56;100799.91;5127938;28;20027;-31
2022/05/06 11:07:39;;;;;;;5.57;2.70;;;;;;;23.18;32.96;100790.97;5127539;28;20050;-30
2022/05/06 11:10:10;;;;;;;8.65;3.38;;;;;;;23.55;32.95;100784.88;5108982;28;20031;-33
2022/05/06 11:12:45;;;;;;;8.07;3.15;;;;;;;24.05;33.31;100788.16;5127680;28;20038;-29
2022/05/06 11:15:15;;;;;;;5.63;3.20;;;;;;;24.06;35.31;100784.34;5127365;28;20095;-30
2022/05/06 11:17:45;;;;;;;5.72;3.47;;;;;;;23.85;34.30;100777.53;5108853;28;20049;-33
2022/05/06 11:20:31;;;;;;;5.80;3.20;;;;;;;23.74;33.00;100776.81;5108963;28;20662;-33
2022/05/06 11:23:08;;;;;;;4.72;2.58;;;;;;;23.45;34.71;100777.63;5126080;28;20023;-31
2022/05/06 11:25:50;;;;;;;4.82;2.70;;;;;;;23.90;33.28;100782.91;5127042;28;20031;-30
2022/05/06 11:28:18;;;;;;;4.57;2.70;;;;;;;23.65;32.54;100767.63;5108852;28;20031;-30
2022/05/06 11:30:45;;;;;;;6.47;2.70;;;;;;;24.00;30.22;100763.69;5127425;28;20104;-29
2022/05/06 11:33:24;;;;;;;4.97;2.42;;;;;;;23.56;30.50;100767.47;5127352;28;20493;-33
2022/05/06 11:35:51;;;;;;;4.55;2.65;;;;;;;23.43;32.38;100766.22;5125370;28;20043;-31
2022/05/06 11:38:48;;;;;;;5.93;2.45;;;;;;;23.01;30.57;100765.00;5127323;28;20058;-32
2022/05/06 11:41:17;;;;;;;6.88;2.53;;;;;;;23.31;30.76;100763.09;5103667;28;20054;-30
2022/05/06 11:43:44;;;;;;;5.57;2.67;;;;;;;23.36;31.96;100748.63;5108666;28;20023;-33
2022/05/06 11:49:07;;;;;;;5.63;2.63;;;;;;;23.30;33.23;100733.47;5127326;28;20038;-30
2022/05/06 11:51:38;;;;;;;7.50;2.45;;;;;;;23.63;33.05;100754.31;5127220;28;20035;-34
2022/05/06 11:54:05;;;;;;;4.95;2.40;;;;;;;23.60;31.25;100754.91;5127077;28;20402;-30
2022/05/06 11:56:33;;;;;;;5.28;3.05;;;;;;;23.95;30.08;100733.81;5127382;28;20114;-31
2022/05/06 11:58:59;;;;;;;;;;;;;;;23.99;30.43;100751.19;5127988;28;20059;-34
2022/05/06 12:01:32;;;;;;;5.95;2.55;;;;;;;24.29;29.52;100740.97;5127181;28;19907;-30
2022/05/06 12:04:06;;;;;;;4.40;2.20;;;;;;;24.11;28.57;100722.69;5127425;28;20027;-30
2022/05/06 12:06:32;;;;;;;4.88;2.78;;;;;;;24.00;28.53;100736.47;5127224;28;20031;-29
2022/05/06 12:09:16;;;;;;;4.00;2.20;;;;;;;23.60;29.60;100744.00;5126734;28;20023;-29
2022/05/06 12:11:43;;;;;;;4.40;2.53;;;;;;;24.01;29.32;100710.06;5108181;27;20027;-32